createdAt,value
2023-07-25T00:02:31.161Z,99.90
2023-07-25T00:07:33.474Z,99.90
2023-07-25T00:12:39.469Z,99.90
2023-07-25T00:17:41.729Z,99.90
2023-07-25T00:22:43.888Z,99.90
2023-07-25T00:27:46.230Z,99.90
2023-07-25T00:32:48.557Z,99.90
2023-07-25T00:37:51.005Z,99.90
2023-07-25T00:42:57.239Z,99.90
2023-07-25T00:47:59.480Z,99.90
2023-07-25T00:53:03.692Z,99.90
2023-07-25T00:58:05.877Z,99.90
2023-07-25T01:03:08.380Z,99.90
2023-07-25T01:08:10.916Z,99.90
2023-07-25T01:13:13.135Z,99.60
2023-07-25T01:18:16.118Z,99.20
2023-07-25T01:23:21.087Z,98.70
2023-07-25T01:28:25.272Z,98.80
2023-07-25T01:33:27.612Z,99.30
2023-07-25T01:38:29.802Z,97.90
2023-07-25T01:43:32.141Z,95.90
2023-07-25T01:48:34.243Z,96.60
2023-07-25T01:53:36.444Z,99.00
2023-07-25T01:58:38.752Z,99.40
2023-07-25T02:03:40.921Z,99.90
2023-07-25T02:08:43.114Z,99.90
2023-07-25T02:13:45.261Z,99.50
2023-07-25T02:18:47.403Z,99.90
2023-07-25T02:23:49.763Z,99.90
2023-07-25T02:28:52.233Z,97.70
2023-07-25T02:33:55.611Z,97.90
2023-07-25T02:38:57.806Z,97.90
2023-07-25T02:44:01.053Z,97.80
2023-07-25T02:49:03.300Z,96.20
2023-07-25T02:54:05.792Z,98.90
2023-07-25T02:59:08.016Z,99.90
2023-07-25T03:04:10.250Z,98.20
2023-07-25T03:09:12.571Z,96.40
2023-07-25T03:14:14.812Z,94.70
2023-07-25T03:19:17.129Z,97.90
2023-07-25T03:24:19.305Z,97.00
2023-07-25T03:29:21.953Z,96.00
2023-07-25T03:34:24.210Z,94.30
2023-07-25T03:39:26.379Z,98.60
2023-07-25T03:44:28.525Z,99.50
2023-07-25T03:49:30.729Z,97.80
2023-07-25T03:54:32.956Z,97.30
2023-07-25T03:59:35.176Z,97.60
2023-07-25T04:04:37.434Z,99.90
2023-07-25T04:09:39.645Z,99.20
2023-07-25T04:14:42.360Z,98.70
2023-07-25T04:19:44.583Z,99.30
2023-07-25T04:24:46.788Z,97.40
2023-07-25T04:29:48.960Z,98.70
2023-07-25T04:34:51.409Z,99.90
2023-07-25T04:39:53.906Z,99.90
2023-07-25T04:44:58.720Z,99.90
2023-07-25T04:50:01.207Z,99.90
2023-07-25T04:55:03.436Z,99.90
2023-07-25T05:00:07.636Z,99.90
2023-07-25T05:05:10.184Z,99.90
2023-07-25T05:10:12.432Z,99.90
2023-07-25T05:15:14.685Z,99.90
2023-07-25T05:20:17.057Z,99.90
2023-07-25T05:25:19.281Z,99.90
2023-07-25T05:30:21.666Z,99.90
2023-07-25T05:35:24.096Z,98.40
2023-07-25T05:40:26.242Z,98.70
2023-07-25T05:45:28.404Z,98.70
2023-07-25T05:50:30.586Z,98.00
2023-07-25T05:55:32.726Z,99.90
2023-07-25T06:00:34.853Z,99.90
2023-07-25T06:05:37.008Z,99.90
2023-07-25T06:10:40.841Z,99.90
2023-07-25T06:15:43.043Z,99.90
2023-07-25T06:20:48.298Z,99.90
2023-07-25T06:25:50.490Z,99.90
2023-07-25T06:30:53.218Z,99.90
2023-07-25T06:35:55.734Z,99.90
2023-07-25T06:40:58.386Z,99.90
2023-07-25T06:46:01.487Z,99.90
2023-07-25T06:51:04.133Z,99.90
2023-07-25T06:56:06.302Z,99.90
2023-07-25T07:01:08.487Z,99.90
2023-07-25T07:06:10.685Z,99.90
2023-07-25T07:11:12.821Z,99.90
2023-07-25T07:16:15.793Z,99.90
2023-07-25T07:21:17.943Z,99.90
2023-07-25T07:26:20.210Z,99.90
2023-07-25T07:31:24.870Z,99.90
2023-07-25T07:36:27.202Z,99.90
2023-07-25T07:41:29.566Z,99.90
2023-07-25T07:46:34.233Z,99.90
2023-07-25T07:51:36.443Z,99.90
2023-07-25T07:56:42.040Z,99.90
2023-07-25T08:01:50.070Z,99.90
2023-07-25T08:06:57.053Z,99.90
2023-07-25T08:12:00.024Z,99.90
2023-07-25T08:17:02.305Z,99.90
2023-07-25T08:22:04.904Z,99.90
2023-07-25T08:27:08.686Z,99.90
2023-07-25T08:32:14.603Z,99.90
2023-07-25T08:37:27.217Z,99.90
2023-07-25T08:42:38.820Z,99.90
2023-07-25T08:47:47.262Z,99.90
2023-07-25T08:52:58.175Z,99.90
2023-07-25T08:58:01.651Z,99.90
2023-07-25T09:03:09.774Z,99.90
2023-07-25T09:08:28.309Z,99.90
2023-07-25T09:13:32.338Z,99.90
2023-07-25T09:18:39.366Z,99.90
2023-07-25T09:23:54.992Z,99.90
2023-07-25T09:29:01.499Z,99.90
2023-07-25T09:34:22.240Z,99.90
2023-07-25T09:39:24.725Z,99.90
2023-07-25T09:50:07.150Z,99.90
2023-07-25T09:55:14.472Z,99.90
2023-07-25T10:00:21.382Z,99.90
2023-07-25T10:05:25.417Z,98.20
2023-07-25T10:10:32.690Z,97.20
2023-07-25T10:15:35.745Z,97.20
2023-07-25T10:20:38.685Z,95.30
2023-07-25T10:25:40.913Z,95.10
2023-07-25T10:30:47.305Z,94.10
2023-07-25T10:35:57.712Z,91.50
2023-07-25T10:41:20.326Z,91.00
2023-07-25T10:46:35.759Z,92.50
2023-07-25T10:51:57.507Z,91.10
2023-07-25T10:57:24.226Z,95.00
2023-07-25T11:02:41.633Z,95.20
2023-07-25T11:07:56.300Z,97.70
2023-07-25T11:13:06.948Z,99.70
2023-07-25T11:18:12.133Z,98.00
2023-07-25T11:23:15.070Z,92.40
2023-07-25T11:28:18.060Z,88.80
2023-07-25T11:33:21.817Z,83.20
2023-07-25T11:38:26.265Z,79.10
2023-07-25T11:43:31.771Z,73.60
2023-07-25T11:48:34.304Z,76.20
2023-07-25T11:53:39.555Z,74.20
2023-07-25T11:58:51.260Z,72.60
2023-07-25T12:03:54.137Z,71.70
2023-07-25T12:09:01.934Z,76.80
2023-07-25T12:14:05.648Z,77.50
2023-07-25T12:19:24.587Z,79.50
2023-07-25T12:24:26.943Z,77.90
2023-07-25T12:29:29.287Z,76.40
2023-07-25T12:34:31.573Z,78.70
2023-07-25T12:39:33.728Z,86.20
2023-07-25T12:44:35.938Z,86.10
2023-07-25T12:49:39.473Z,84.00
2023-07-25T12:54:44.096Z,77.80
2023-07-25T12:59:46.273Z,74.10
2023-07-25T13:05:01.218Z,72.70
2023-07-25T13:10:03.660Z,72.10
2023-07-25T13:15:07.354Z,73.00
2023-07-25T13:20:10.252Z,74.10
2023-07-25T13:25:22.086Z,73.80
2023-07-25T13:30:25.993Z,73.80
2023-07-25T13:35:28.254Z,75.90
2023-07-25T13:40:30.627Z,76.40
2023-07-25T13:45:46.037Z,76.50
2023-07-25T13:50:55.335Z,76.90
2023-07-25T13:56:02.084Z,77.20
2023-07-25T14:01:09.224Z,77.40
2023-07-25T14:06:13.549Z,77.90
2023-07-25T14:11:22.027Z,77.90
2023-07-25T14:16:24.599Z,77.80
2023-07-25T14:21:37.043Z,78.00
2023-07-25T14:26:39.458Z,78.70
2023-07-25T14:31:52.134Z,78.40
2023-07-25T14:36:56.851Z,79.40
2023-07-25T14:42:02.094Z,78.30
2023-07-25T14:47:07.013Z,76.20
2023-07-25T14:52:11.912Z,76.70
2023-07-25T14:57:21.927Z,77.50
2023-07-25T15:02:27.397Z,73.30
2023-07-25T15:07:33.010Z,72.80
2023-07-25T15:12:35.519Z,77.40
2023-07-25T15:17:37.972Z,76.00
2023-07-25T15:22:42.731Z,76.50
2023-07-25T15:27:49.394Z,75.60
2023-07-25T15:32:54.090Z,75.10
2023-07-25T15:37:58.846Z,76.00
2023-07-25T15:43:09.643Z,74.90
2023-07-25T15:48:24.578Z,78.70
2023-07-25T15:53:29.170Z,79.00
2023-07-25T15:58:34.014Z,88.30
2023-07-25T16:03:44.848Z,92.60
2023-07-25T16:08:50.199Z,94.00
2023-07-25T16:13:56.128Z,94.90
2023-07-25T16:18:58.339Z,97.80
2023-07-25T16:24:00.578Z,98.90
2023-07-25T16:29:02.819Z,99.20
2023-07-25T16:39:44.750Z,98.50
2023-07-25T16:45:20.365Z,99.90
2023-07-25T16:50:25.729Z,99.90
2023-07-25T16:55:31.267Z,99.90
2023-07-25T17:00:58.768Z,97.00
2023-07-25T17:06:06.780Z,98.60
2023-07-25T17:11:12.815Z,94.90
2023-07-25T17:16:20.789Z,91.50
2023-07-25T17:21:34.114Z,88.30
2023-07-25T17:26:42.026Z,85.80
2023-07-25T17:31:46.571Z,85.00
2023-07-25T17:36:48.730Z,83.20
2023-07-25T17:41:51.032Z,83.90
2023-07-25T17:46:53.384Z,84.90
2023-07-25T17:51:55.845Z,84.00
2023-07-25T17:57:03.298Z,85.90
2023-07-25T18:02:07.202Z,86.20
2023-07-25T18:07:09.424Z,87.10
2023-07-25T18:12:16.634Z,84.50
2023-07-25T18:17:18.861Z,87.40
2023-07-25T18:22:22.455Z,85.20
2023-07-25T18:27:40.138Z,86.20
2023-07-25T18:32:43.449Z,85.90
2023-07-25T18:37:53.430Z,86.60
2023-07-25T18:42:56.062Z,84.50
2023-07-25T18:48:00.729Z,87.30
2023-07-25T18:53:02.922Z,90.80
2023-07-25T18:58:07.501Z,92.20
2023-07-25T19:03:09.769Z,91.90
2023-07-25T19:08:11.955Z,90.50
2023-07-25T19:13:14.108Z,92.10
2023-07-25T19:18:16.862Z,94.80
2023-07-25T19:23:26.462Z,93.60
2023-07-25T19:28:30.364Z,93.00
2023-07-25T19:33:34.348Z,91.30
2023-07-25T19:38:40.731Z,96.40
2023-07-25T19:43:48.846Z,94.90
2023-07-25T19:48:53.276Z,98.90
2023-07-25T19:53:56.062Z,97.40
2023-07-25T19:59:06.298Z,98.90
2023-07-25T20:04:11.667Z,97.30
2023-07-25T20:09:14.224Z,98.80
2023-07-25T20:14:18.685Z,99.90
2023-07-25T20:19:27.382Z,99.90
2023-07-25T20:24:35.654Z,99.90
2023-07-25T20:29:37.870Z,99.80
2023-07-25T20:34:46.320Z,99.90
2023-07-25T20:39:48.576Z,99.90
2023-07-25T20:44:53.254Z,99.90
2023-07-25T20:50:00.161Z,99.90
2023-07-25T20:55:05.050Z,99.90
2023-07-25T21:00:11.014Z,99.90
2023-07-25T21:05:13.450Z,99.90
2023-07-25T21:10:15.646Z,99.90
2023-07-25T21:15:23.150Z,99.90
2023-07-25T21:20:29.112Z,99.90
2023-07-25T21:31:12.359Z,99.90
2023-07-25T21:36:15.067Z,99.90
2023-07-25T21:41:17.388Z,99.90
2023-07-25T21:46:19.707Z,99.90
2023-07-25T21:51:21.896Z,99.90
2023-07-25T21:56:24.258Z,99.90
2023-07-25T22:01:26.722Z,99.90
2023-07-25T22:06:30.012Z,99.90
2023-07-25T22:11:32.655Z,99.90
2023-07-25T22:16:35.333Z,99.90
2023-07-25T22:21:37.945Z,98.90
2023-07-25T22:26:40.104Z,99.90
2023-07-25T22:31:42.299Z,99.50
2023-07-25T22:36:44.549Z,99.30
2023-07-25T22:41:46.712Z,99.90
2023-07-25T22:46:48.870Z,99.90
2023-07-25T22:51:51.070Z,99.90
2023-07-25T22:56:53.479Z,99.90
2023-07-25T23:01:56.048Z,99.10
2023-07-25T23:06:58.340Z,99.90
2023-07-25T23:12:00.699Z,99.90
2023-07-25T23:17:02.969Z,99.90
2023-07-25T23:22:05.237Z,99.90
2023-07-25T23:27:08.268Z,99.90
2023-07-25T23:32:12.030Z,99.90
2023-07-25T23:37:14.482Z,99.90
2023-07-25T23:42:16.798Z,99.90
2023-07-25T23:47:18.983Z,99.90
2023-07-25T23:52:21.151Z,99.90
2023-07-25T23:57:23.447Z,99.90
